sensor_id;sensor_type;location;lat;lon;timestamp;temperature;humidity
27896;DHT22;15241;48.374;10.876;2022-12-18T00:00:16;-2.50;99.90
27896;DHT22;15241;48.374;10.876;2022-12-18T00:05:15;-2.50;99.90
27896;DHT22;15241;48.374;10.876;2022-12-18T00:10:14;-2.50;99.90
27896;DHT22;15241;48.374;10.876;2022-12-18T00:15:14;-2.60;99.90
27896;DHT22;15241;48.374;10.876;2022-12-18T00:20:13;-2.60;99.90
27896;DHT22;15241;48.374;10.876;2022-12-18T00:25:12;-2.60;99.90
27896;DHT22;15241;48.374;10.876;2022-12-18T00:30:12;-2.50;99.90
27896;DHT22;15241;48.374;10.876;2022-12-18T00:35:11;-2.60;99.90
27896;DHT22;15241;48.374;10.876;2022-12-18T00:40:12;-2.70;99.90
27896;DHT22;15241;48.374;10.876;2022-12-18T00:45:12;-2.60;99.90
27896;DHT22;15241;48.374;10.876;2022-12-18T00:50:11;-2.50;99.90
27896;DHT22;15241;48.374;10.876;2022-12-18T00:55:10;-2.40;99.90
27896;DHT22;15241;48.374;10.876;2022-12-18T01:00:13;-2.40;99.90
27896;DHT22;15241;48.374;10.876;2022-12-18T01:05:13;-2.40;99.90
27896;DHT22;15241;48.374;10.876;2022-12-18T01:10:13;-2.40;99.90
27896;DHT22;15241;48.374;10.876;2022-12-18T01:15:13;-2.40;99.90
27896;DHT22;15241;48.374;10.876;2022-12-18T01:20:13;-2.30;99.90
27896;DHT22;15241;48.374;10.876;2022-12-18T01:25:12;-2.30;99.90
27896;DHT22;15241;48.374;10.876;2022-12-18T01:30:12;-2.30;99.90
27896;DHT22;15241;48.374;10.876;2022-12-18T01:35:11;-2.30;99.90
27896;DHT22;15241;48.374;10.876;2022-12-18T01:40:11;-2.20;99.90
27896;DHT22;15241;48.374;10.876;2022-12-18T01:45:25;-2.30;99.90
27896;DHT22;15241;48.374;10.876;2022-12-18T01:50:29;-2.30;99.90
27896;DHT22;15241;48.374;10.876;2022-12-18T01:55:30;-2.50;99.90
27896;DHT22;15241;48.374;10.876;2022-12-18T02:00:30;-2.50;99.90
27896;DHT22;15241;48.374;10.876;2022-12-18T02:05:39;-2.50;99.90
27896;DHT22;15241;48.374;10.876;2022-12-18T02:10:41;-2.60;99.90
27896;DHT22;15241;48.374;10.876;2022-12-18T02:15:44;-2.60;99.90
27896;DHT22;15241;48.374;10.876;2022-12-18T02:20:45;-2.70;99.90
27896;DHT22;15241;48.374;10.876;2022-12-18T02:31:16;-2.80;99.90
27896;DHT22;15241;48.374;10.876;2022-12-18T02:36:16;-2.70;99.90
27896;DHT22;15241;48.374;10.876;2022-12-18T02:41:16;-2.80;99.90
27896;DHT22;15241;48.374;10.876;2022-12-18T02:46:32;-2.70;99.90
27896;DHT22;15241;48.374;10.876;2022-12-18T02:51:35;-2.70;99.90
27896;DHT22;15241;48.374;10.876;2022-12-18T02:56:36;-2.70;99.90
27896;DHT22;15241;48.374;10.876;2022-12-18T03:01:38;-2.70;99.90
27896;DHT22;15241;48.374;10.876;2022-12-18T03:06:39;-2.80;99.90
27896;DHT22;15241;48.374;10.876;2022-12-18T03:11:41;-2.80;99.90
27896;DHT22;15241;48.374;10.876;2022-12-18T03:16:42;-3.00;99.90
27896;DHT22;15241;48.374;10.876;2022-12-18T03:26:52;-3.10;99.90
27896;DHT22;15241;48.374;10.876;2022-12-18T03:31:54;-3.00;99.90
27896;DHT22;15241;48.374;10.876;2022-12-18T03:36:55;-2.90;99.90
27896;DHT22;15241;48.374;10.876;2022-12-18T03:41:56;-2.80;99.90
27896;DHT22;15241;48.374;10.876;2022-12-18T03:47:15;-2.90;99.90
27896;DHT22;15241;48.374;10.876;2022-12-18T03:52:17;-2.90;99.90
27896;DHT22;15241;48.374;10.876;2022-12-18T03:57:20;-2.90;99.90
27896;DHT22;15241;48.374;10.876;2022-12-18T04:02:21;-2.90;99.90
27896;DHT22;15241;48.374;10.876;2022-12-18T04:07:22;-2.90;99.90
27896;DHT22;15241;48.374;10.876;2022-12-18T04:12:23;-3.00;99.90
27896;DHT22;15241;48.374;10.876;2022-12-18T04:17:23;-3.00;99.90
27896;DHT22;15241;48.374;10.876;2022-12-18T04:22:22;-3.00;99.90
27896;DHT22;15241;48.374;10.876;2022-12-18T04:27:21;-2.90;99.90
27896;DHT22;15241;48.374;10.876;2022-12-18T04:32:20;-3.00;99.90
27896;DHT22;15241;48.374;10.876;2022-12-18T04:37:19;-3.00;99.90
27896;DHT22;15241;48.374;10.876;2022-12-18T04:42:18;-2.90;99.90
27896;DHT22;15241;48.374;10.876;2022-12-18T04:47:17;-2.80;99.90
27896;DHT22;15241;48.374;10.876;2022-12-18T04:52:16;-2.80;99.90
27896;DHT22;15241;48.374;10.876;2022-12-18T04:57:15;-2.80;99.90
27896;DHT22;15241;48.374;10.876;2022-12-18T05:02:14;-2.80;99.90
27896;DHT22;15241;48.374;10.876;2022-12-18T05:07:13;-2.90;99.90
27896;DHT22;15241;48.374;10.876;2022-12-18T05:12:11;-2.90;99.90
27896;DHT22;15241;48.374;10.876;2022-12-18T05:17:10;-2.90;99.90
27896;DHT22;15241;48.374;10.876;2022-12-18T05:22:09;-2.80;99.90
27896;DHT22;15241;48.374;10.876;2022-12-18T05:27:08;-2.90;99.90
27896;DHT22;15241;48.374;10.876;2022-12-18T05:32:07;-2.90;99.90
27896;DHT22;15241;48.374;10.876;2022-12-18T05:37:06;-2.80;99.90
27896;DHT22;15241;48.374;10.876;2022-12-18T05:42:05;-2.90;99.90
27896;DHT22;15241;48.374;10.876;2022-12-18T05:47:04;-2.80;99.90
27896;DHT22;15241;48.374;10.876;2022-12-18T05:52:03;-2.80;99.90
27896;DHT22;15241;48.374;10.876;2022-12-18T05:57:03;-2.90;99.90
27896;DHT22;15241;48.374;10.876;2022-12-18T06:02:01;-2.90;99.90
27896;DHT22;15241;48.374;10.876;2022-12-18T06:07:00;-2.90;99.90
27896;DHT22;15241;48.374;10.876;2022-12-18T06:12:00;-2.80;99.90
27896;DHT22;15241;48.374;10.876;2022-12-18T06:17:00;-2.80;99.90
27896;DHT22;15241;48.374;10.876;2022-12-18T06:21:59;-3.00;99.90
27896;DHT22;15241;48.374;10.876;2022-12-18T06:26:57;-2.90;99.90
27896;DHT22;15241;48.374;10.876;2022-12-18T06:31:56;-2.90;99.90
27896;DHT22;15241;48.374;10.876;2022-12-18T06:36:55;-3.00;99.90
27896;DHT22;15241;48.374;10.876;2022-12-18T06:41:54;-3.00;99.90
27896;DHT22;15241;48.374;10.876;2022-12-18T06:46:53;-3.00;99.90
27896;DHT22;15241;48.374;10.876;2022-12-18T06:51:52;-3.00;99.90
27896;DHT22;15241;48.374;10.876;2022-12-18T06:56:51;-3.00;99.90
27896;DHT22;15241;48.374;10.876;2022-12-18T07:01:50;-2.90;99.90
27896;DHT22;15241;48.374;10.876;2022-12-18T07:06:49;-2.90;99.90
27896;DHT22;15241;48.374;10.876;2022-12-18T07:11:48;-3.00;99.90
27896;DHT22;15241;48.374;10.876;2022-12-18T07:16:47;-3.10;99.90
27896;DHT22;15241;48.374;10.876;2022-12-18T07:21:46;-3.00;99.90
27896;DHT22;15241;48.374;10.876;2022-12-18T07:26:47;-3.00;99.90
27896;DHT22;15241;48.374;10.876;2022-12-18T07:31:46;-3.10;99.90
27896;DHT22;15241;48.374;10.876;2022-12-18T07:36:46;-3.00;99.90
27896;DHT22;15241;48.374;10.876;2022-12-18T07:41:48;-3.00;99.90
27896;DHT22;15241;48.374;10.876;2022-12-18T07:46:47;-2.90;99.90
27896;DHT22;15241;48.374;10.876;2022-12-18T07:51:46;-3.00;99.90
27896;DHT22;15241;48.374;10.876;2022-12-18T07:56:45;-3.00;99.90
27896;DHT22;15241;48.374;10.876;2022-12-18T08:01:44;-2.90;99.90
27896;DHT22;15241;48.374;10.876;2022-12-18T08:06:42;-3.00;99.90
27896;DHT22;15241;48.374;10.876;2022-12-18T08:11:42;-2.90;99.90
27896;DHT22;15241;48.374;10.876;2022-12-18T08:16:59;-2.90;99.90
27896;DHT22;15241;48.374;10.876;2022-12-18T08:21:58;-2.90;99.90
27896;DHT22;15241;48.374;10.876;2022-12-18T08:26:58;-2.80;99.90
27896;DHT22;15241;48.374;10.876;2022-12-18T08:32:00;-2.70;99.90
27896;DHT22;15241;48.374;10.876;2022-12-18T08:36:59;-2.70;99.90
27896;DHT22;15241;48.374;10.876;2022-12-18T08:42:00;-2.60;99.90
27896;DHT22;15241;48.374;10.876;2022-12-18T08:46:58;-2.60;99.90
27896;DHT22;15241;48.374;10.876;2022-12-18T08:51:58;-2.50;99.90
27896;DHT22;15241;48.374;10.876;2022-12-18T08:56:57;-2.50;99.90
27896;DHT22;15241;48.374;10.876;2022-12-18T09:01:58;-2.50;99.90
27896;DHT22;15241;48.374;10.876;2022-12-18T09:06:57;-2.60;99.90
27896;DHT22;15241;48.374;10.876;2022-12-18T09:11:56;-2.50;99.90
27896;DHT22;15241;48.374;10.876;2022-12-18T09:16:55;-2.50;99.90
27896;DHT22;15241;48.374;10.876;2022-12-18T09:21:54;-2.30;99.90
27896;DHT22;15241;48.374;10.876;2022-12-18T09:26:54;-2.20;99.90
27896;DHT22;15241;48.374;10.876;2022-12-18T09:31:53;-2.40;99.90
27896;DHT22;15241;48.374;10.876;2022-12-18T09:36:52;-2.50;99.90
27896;DHT22;15241;48.374;10.876;2022-12-18T09:41:53;-2.40;99.90
27896;DHT22;15241;48.374;10.876;2022-12-18T09:52:14;-2.20;99.90
27896;DHT22;15241;48.374;10.876;2022-12-18T09:57:16;-2.00;99.90
27896;DHT22;15241;48.374;10.876;2022-12-18T10:02:18;-2.00;99.90
27896;DHT22;15241;48.374;10.876;2022-12-18T10:12:32;-2.10;99.90
27896;DHT22;15241;48.374;10.876;2022-12-18T10:17:35;-1.90;99.90
27896;DHT22;15241;48.374;10.876;2022-12-18T10:22:41;-1.80;99.90
27896;DHT22;15241;48.374;10.876;2022-12-18T10:27:40;-1.80;99.90
27896;DHT22;15241;48.374;10.876;2022-12-18T10:32:41;-1.70;99.90
27896;DHT22;15241;48.374;10.876;2022-12-18T10:42:55;-1.60;99.90
27896;DHT22;15241;48.374;10.876;2022-12-18T10:47:56;-1.40;99.90
27896;DHT22;15241;48.374;10.876;2022-12-18T10:52:59;-1.40;99.90
27896;DHT22;15241;48.374;10.876;2022-12-18T10:58:13;-1.40;99.90
27896;DHT22;15241;48.374;10.876;2022-12-18T11:03:31;-1.30;99.90
27896;DHT22;15241;48.374;10.876;2022-12-18T11:08:31;-1.30;99.90
27896;DHT22;15241;48.374;10.876;2022-12-18T11:13:31;-1.30;99.90
27896;DHT22;15241;48.374;10.876;2022-12-18T11:18:31;-1.10;99.90
27896;DHT22;15241;48.374;10.876;2022-12-18T11:23:32;-1.10;99.90
27896;DHT22;15241;48.374;10.876;2022-12-18T11:28:39;-1.10;99.90
27896;DHT22;15241;48.374;10.876;2022-12-18T11:33:41;-1.00;99.90
27896;DHT22;15241;48.374;10.876;2022-12-18T11:38:42;-1.10;99.90
27896;DHT22;15241;48.374;10.876;2022-12-18T11:43:44;-1.00;99.90
27896;DHT22;15241;48.374;10.876;2022-12-18T11:48:47;-0.90;99.90
27896;DHT22;15241;48.374;10.876;2022-12-18T11:53:54;-0.80;99.90
27896;DHT22;15241;48.374;10.876;2022-12-18T11:59:04;-0.80;99.90
27896;DHT22;15241;48.374;10.876;2022-12-18T12:14:57;-0.80;99.90
27896;DHT22;15241;48.374;10.876;2022-12-18T12:25:25;-0.70;99.90
27896;DHT22;15241;48.374;10.876;2022-12-18T12:30:28;-0.90;99.90
27896;DHT22;15241;48.374;10.876;2022-12-18T12:40:43;-0.90;99.90
27896;DHT22;15241;48.374;10.876;2022-12-18T12:45:47;-1.20;99.90
27896;DHT22;15241;48.374;10.876;2022-12-18T12:50:48;-1.00;99.90
27896;DHT22;15241;48.374;10.876;2022-12-18T12:55:46;-1.10;99.90
27896;DHT22;15241;48.374;10.876;2022-12-18T13:00:49;-1.10;99.90
27896;DHT22;15241;48.374;10.876;2022-12-18T13:05:52;-1.10;99.90
27896;DHT22;15241;48.374;10.876;2022-12-18T13:10:51;-1.00;99.90
27896;DHT22;15241;48.374;10.876;2022-12-18T13:16:03;-1.00;99.90
27896;DHT22;15241;48.374;10.876;2022-12-18T13:21:10;-1.10;99.90
27896;DHT22;15241;48.374;10.876;2022-12-18T13:26:30;-1.30;99.90
27896;DHT22;15241;48.374;10.876;2022-12-18T13:42:39;-1.60;99.90
27896;DHT22;15241;48.374;10.876;2022-12-18T13:47:39;-1.60;99.90
27896;DHT22;15241;48.374;10.876;2022-12-18T13:52:39;-1.70;99.90
27896;DHT22;15241;48.374;10.876;2022-12-18T13:57:39;-1.80;99.90
27896;DHT22;15241;48.374;10.876;2022-12-18T14:02:38;-1.80;99.90
27896;DHT22;15241;48.374;10.876;2022-12-18T14:07:37;-1.90;99.90
27896;DHT22;15241;48.374;10.876;2022-12-18T14:12:37;-1.90;99.90
27896;DHT22;15241;48.374;10.876;2022-12-18T14:17:37;-2.00;99.90
27896;DHT22;15241;48.374;10.876;2022-12-18T14:22:36;-2.00;99.90
27896;DHT22;15241;48.374;10.876;2022-12-18T14:32:59;-2.10;99.90
27896;DHT22;15241;48.374;10.876;2022-12-18T14:38:22;-2.10;99.90
27896;DHT22;15241;48.374;10.876;2022-12-18T14:43:21;-2.10;99.90
27896;DHT22;15241;48.374;10.876;2022-12-18T14:48:22;-2.20;99.90
27896;DHT22;15241;48.374;10.876;2022-12-18T14:53:26;-2.20;99.90
27896;DHT22;15241;48.374;10.876;2022-12-18T14:58:24;-2.30;99.90
27896;DHT22;15241;48.374;10.876;2022-12-18T15:03:23;-2.30;99.90
27896;DHT22;15241;48.374;10.876;2022-12-18T15:08:36;-2.30;99.90
27896;DHT22;15241;48.374;10.876;2022-12-18T15:13:31;-2.30;99.90
27896;DHT22;15241;48.374;10.876;2022-12-18T15:18:33;-2.40;99.90
27896;DHT22;15241;48.374;10.876;2022-12-18T15:23:35;-2.50;99.90
27896;DHT22;15241;48.374;10.876;2022-12-18T15:28:39;-2.70;99.90
27896;DHT22;15241;48.374;10.876;2022-12-18T15:33:38;-2.60;99.90
27896;DHT22;15241;48.374;10.876;2022-12-18T15:38:38;-2.80;99.90
27896;DHT22;15241;48.374;10.876;2022-12-18T15:43:38;-2.80;99.90
27896;DHT22;15241;48.374;10.876;2022-12-18T15:48:39;-2.80;99.90
27896;DHT22;15241;48.374;10.876;2022-12-18T15:53:41;-2.70;99.90
27896;DHT22;15241;48.374;10.876;2022-12-18T15:58:39;-2.80;99.90
27896;DHT22;15241;48.374;10.876;2022-12-18T16:03:38;-2.80;99.90
27896;DHT22;15241;48.374;10.876;2022-12-18T16:08:37;-3.10;99.90
27896;DHT22;15241;48.374;10.876;2022-12-18T16:13:37;-2.90;99.90
27896;DHT22;15241;48.374;10.876;2022-12-18T16:18:36;-2.90;99.90
27896;DHT22;15241;48.374;10.876;2022-12-18T16:23:35;-2.80;99.90
27896;DHT22;15241;48.374;10.876;2022-12-18T16:28:34;-3.00;99.90
27896;DHT22;15241;48.374;10.876;2022-12-18T16:33:33;-3.00;99.90
27896;DHT22;15241;48.374;10.876;2022-12-18T16:38:32;-2.90;99.90
27896;DHT22;15241;48.374;10.876;2022-12-18T16:43:31;-2.90;99.90
27896;DHT22;15241;48.374;10.876;2022-12-18T16:48:30;-3.10;99.90
27896;DHT22;15241;48.374;10.876;2022-12-18T16:53:29;-3.00;99.90
27896;DHT22;15241;48.374;10.876;2022-12-18T16:58:29;-2.90;99.90
27896;DHT22;15241;48.374;10.876;2022-12-18T17:03:27;-2.90;99.90
27896;DHT22;15241;48.374;10.876;2022-12-18T17:08:26;-2.80;99.90
27896;DHT22;15241;48.374;10.876;2022-12-18T17:13:27;-2.90;99.90
27896;DHT22;15241;48.374;10.876;2022-12-18T17:18:26;-2.80;99.90
27896;DHT22;15241;48.374;10.876;2022-12-18T17:23:25;-2.80;99.90
27896;DHT22;15241;48.374;10.876;2022-12-18T17:28:26;-2.80;99.90
27896;DHT22;15241;48.374;10.876;2022-12-18T17:33:25;-2.70;99.90
27896;DHT22;15241;48.374;10.876;2022-12-18T17:38:24;-2.80;99.90
27896;DHT22;15241;48.374;10.876;2022-12-18T17:43:23;-2.80;99.90
27896;DHT22;15241;48.374;10.876;2022-12-18T17:48:22;-2.70;99.90
27896;DHT22;15241;48.374;10.876;2022-12-18T17:53:21;-2.70;99.90
27896;DHT22;15241;48.374;10.876;2022-12-18T17:58:20;-2.80;99.90
27896;DHT22;15241;48.374;10.876;2022-12-18T18:03:19;-2.80;99.90
27896;DHT22;15241;48.374;10.876;2022-12-18T18:08:18;-2.80;99.90
27896;DHT22;15241;48.374;10.876;2022-12-18T18:13:20;-2.80;99.90
27896;DHT22;15241;48.374;10.876;2022-12-18T18:18:19;-2.80;99.90
27896;DHT22;15241;48.374;10.876;2022-12-18T18:23:18;-2.70;99.90
27896;DHT22;15241;48.374;10.876;2022-12-18T18:28:17;-2.90;99.90
27896;DHT22;15241;48.374;10.876;2022-12-18T18:33:16;-2.70;99.90
27896;DHT22;15241;48.374;10.876;2022-12-18T18:38:15;-2.70;99.90
27896;DHT22;15241;48.374;10.876;2022-12-18T18:43:13;-2.70;99.90
27896;DHT22;15241;48.374;10.876;2022-12-18T18:48:12;-2.90;99.90
27896;DHT22;15241;48.374;10.876;2022-12-18T18:53:11;-2.80;99.90
27896;DHT22;15241;48.374;10.876;2022-12-18T18:58:10;-2.70;99.90
27896;DHT22;15241;48.374;10.876;2022-12-18T19:03:09;-2.70;99.90
27896;DHT22;15241;48.374;10.876;2022-12-18T19:08:09;-2.70;99.90
27896;DHT22;15241;48.374;10.876;2022-12-18T19:13:10;-2.70;99.90
27896;DHT22;15241;48.374;10.876;2022-12-18T19:18:09;-2.80;99.90
27896;DHT22;15241;48.374;10.876;2022-12-18T19:23:08;-3.00;99.90
27896;DHT22;15241;48.374;10.876;2022-12-18T19:28:08;-2.80;99.90
27896;DHT22;15241;48.374;10.876;2022-12-18T19:33:10;-2.70;99.90
27896;DHT22;15241;48.374;10.876;2022-12-18T19:38:09;-2.70;99.90
27896;DHT22;15241;48.374;10.876;2022-12-18T19:43:10;-2.80;99.90
27896;DHT22;15241;48.374;10.876;2022-12-18T19:48:09;-2.80;99.90
27896;DHT22;15241;48.374;10.876;2022-12-18T19:53:09;-3.10;99.90
27896;DHT22;15241;48.374;10.876;2022-12-18T19:58:08;-3.10;99.90
27896;DHT22;15241;48.374;10.876;2022-12-18T20:03:07;-3.10;99.90
27896;DHT22;15241;48.374;10.876;2022-12-18T20:08:06;-3.00;99.90
27896;DHT22;15241;48.374;10.876;2022-12-18T20:13:05;-3.00;99.90
27896;DHT22;15241;48.374;10.876;2022-12-18T20:18:04;-2.90;99.90
27896;DHT22;15241;48.374;10.876;2022-12-18T20:23:03;-3.00;99.90
27896;DHT22;15241;48.374;10.876;2022-12-18T20:28:02;-2.90;99.90
27896;DHT22;15241;48.374;10.876;2022-12-18T20:33:05;-2.80;99.90
27896;DHT22;15241;48.374;10.876;2022-12-18T20:38:07;-3.00;99.90
27896;DHT22;15241;48.374;10.876;2022-12-18T20:43:06;-3.00;99.90
27896;DHT22;15241;48.374;10.876;2022-12-18T20:48:06;-3.00;99.90
27896;DHT22;15241;48.374;10.876;2022-12-18T20:58:12;-3.00;99.90
27896;DHT22;15241;48.374;10.876;2022-12-18T21:08:17;-2.90;99.90
27896;DHT22;15241;48.374;10.876;2022-12-18T21:13:16;-2.90;99.90
27896;DHT22;15241;48.374;10.876;2022-12-18T21:18:15;-2.90;99.90
27896;DHT22;15241;48.374;10.876;2022-12-18T21:23:14;-2.90;99.90
27896;DHT22;15241;48.374;10.876;2022-12-18T21:28:13;-2.90;99.90
27896;DHT22;15241;48.374;10.876;2022-12-18T21:33:12;-2.90;99.90
27896;DHT22;15241;48.374;10.876;2022-12-18T21:38:11;-2.80;99.90
27896;DHT22;15241;48.374;10.876;2022-12-18T21:43:10;-2.80;99.90
27896;DHT22;15241;48.374;10.876;2022-12-18T21:48:09;-2.90;99.90
27896;DHT22;15241;48.374;10.876;2022-12-18T21:53:08;-2.90;99.90
27896;DHT22;15241;48.374;10.876;2022-12-18T21:58:06;-2.80;99.90
27896;DHT22;15241;48.374;10.876;2022-12-18T22:03:05;-2.70;99.90
27896;DHT22;15241;48.374;10.876;2022-12-18T22:08:05;-2.70;99.90
27896;DHT22;15241;48.374;10.876;2022-12-18T22:13:04;-2.70;99.90
27896;DHT22;15241;48.374;10.876;2022-12-18T22:18:03;-2.70;99.90
27896;DHT22;15241;48.374;10.876;2022-12-18T22:23:02;-2.60;99.90
27896;DHT22;15241;48.374;10.876;2022-12-18T22:28:01;-2.60;99.90
27896;DHT22;15241;48.374;10.876;2022-12-18T22:33:00;-2.60;99.90
27896;DHT22;15241;48.374;10.876;2022-12-18T22:37:59;-2.60;99.90
27896;DHT22;15241;48.374;10.876;2022-12-18T22:42:58;-2.60;99.90
27896;DHT22;15241;48.374;10.876;2022-12-18T22:47:57;-2.80;99.90
27896;DHT22;15241;48.374;10.876;2022-12-18T22:52:56;-2.70;99.90
27896;DHT22;15241;48.374;10.876;2022-12-18T22:57:55;-2.70;99.90
27896;DHT22;15241;48.374;10.876;2022-12-18T23:02:54;-2.60;99.90
27896;DHT22;15241;48.374;10.876;2022-12-18T23:07:53;-2.70;99.90
27896;DHT22;15241;48.374;10.876;2022-12-18T23:12:52;-2.70;99.90
27896;DHT22;15241;48.374;10.876;2022-12-18T23:17:51;-2.70;99.90
27896;DHT22;15241;48.374;10.876;2022-12-18T23:22:50;-2.80;99.90
27896;DHT22;15241;48.374;10.876;2022-12-18T23:27:49;-2.60;99.90
27896;DHT22;15241;48.374;10.876;2022-12-18T23:32:47;-2.60;99.90
27896;DHT22;15241;48.374;10.876;2022-12-18T23:37:47;-2.60;99.90
27896;DHT22;15241;48.374;10.876;2022-12-18T23:42:46;-2.50;99.90
27896;DHT22;15241;48.374;10.876;2022-12-18T23:47:45;-2.60;99.90
27896;DHT22;15241;48.374;10.876;2022-12-18T23:52:45;-2.60;99.90
27896;DHT22;15241;48.374;10.876;2022-12-18T23:57:44;-2.60;99.90
